createdAt,value
2017-10-11T13:19:59.899Z,15.18
2017-10-11T13:22:32.505Z,14.96
2017-10-11T13:25:02.263Z,15.15
2017-10-11T13:27:31.329Z,14.89
2017-10-11T13:30:02.992Z,14.72
2017-10-11T13:32:33.729Z,14.89
2017-10-11T13:35:05.341Z,14.82
2017-10-11T13:37:36.517Z,15.06
2017-10-11T13:40:05.746Z,15.24
2017-10-11T13:42:37.877Z,15.31
2017-10-11T13:45:07.217Z,15.04
2017-10-11T13:47:36.029Z,15.35
2017-10-11T13:50:08.174Z,14.82
2017-10-11T13:52:38.815Z,15.08
2017-10-11T13:55:08.904Z,15.17
2017-10-11T13:57:38.542Z,15.16
2017-10-11T14:00:08.068Z,14.92
2017-10-11T14:02:36.920Z,14.94
2017-10-11T14:05:06.508Z,14.89
2017-10-11T14:07:37.182Z,14.58
2017-10-11T14:10:08.005Z,14.78
2017-10-11T14:12:37.366Z,15.09
2017-10-11T14:15:08.946Z,15.01
2017-10-11T14:17:51.995Z,14.97
2017-10-11T14:20:21.441Z,14.87
2017-10-11T14:22:51.990Z,14.76
2017-10-11T14:25:21.827Z,14.51
2017-10-11T14:27:52.019Z,14.38
2017-10-11T14:30:28.404Z,14.49
2017-10-11T14:32:59.526Z,14.84
2017-10-11T14:35:29.042Z,14.81
2017-10-11T14:37:57.908Z,15.33
2017-10-11T14:40:30.161Z,15.23
2017-10-11T14:43:02.222Z,14.93
2017-10-11T14:45:31.157Z,14.96
2017-10-11T14:48:03.002Z,15.01
2017-10-11T14:50:32.290Z,14.86
2017-10-11T14:53:02.841Z,14.57
2017-10-11T14:55:34.438Z,14.58
2017-10-11T14:58:15.581Z,14.53
2017-10-11T15:00:45.438Z,14.76
2017-10-11T15:03:19.792Z,14.55
2017-10-11T15:05:49.382Z,14.54
2017-10-11T15:08:20.887Z,14.57
2017-10-11T15:10:49.989Z,14.56
2017-10-11T15:13:19.331Z,14.45
2017-10-11T15:15:49.010Z,14.34
2017-10-11T15:18:18.711Z,14.21
2017-10-11T15:20:47.799Z,14.22
2017-10-11T15:23:17.071Z,14.17
2017-10-11T15:25:47.369Z,14.23
2017-10-11T15:28:18.930Z,14.54
2017-10-11T15:30:49.158Z,14.26
2017-10-11T15:33:22.514Z,14.52
2017-10-11T15:35:51.504Z,14.65
2017-10-11T15:38:27.157Z,14.58
2017-10-11T15:41:00.242Z,14.63
2017-10-11T15:43:32.728Z,14.36
2017-10-11T15:46:03.438Z,14.18
2017-10-11T15:48:35.805Z,14.37
2017-10-11T15:51:05.330Z,13.91
2017-10-11T15:53:37.438Z,14.08
2017-10-11T15:56:07.627Z,14.11
2017-10-11T15:58:38.853Z,14.16
2017-10-11T16:01:10.505Z,13.92
2017-10-11T16:03:41.638Z,13.93
2017-10-11T16:06:11.341Z,13.88
2017-10-11T16:08:45.109Z,13.76
2017-10-11T16:11:13.988Z,13.89
2017-10-11T16:13:43.125Z,14.06
2017-10-11T16:16:12.243Z,14.23
2017-10-11T16:18:41.761Z,13.74
2017-10-11T16:21:12.173Z,13.65
2017-10-11T16:23:43.265Z,14.23
2017-10-11T16:26:15.172Z,13.92
2017-10-11T16:28:46.894Z,14.07
2017-10-11T16:31:16.903Z,13.61
2017-10-11T16:33:46.765Z,13.63
2017-10-11T16:36:17.438Z,13.44
2017-10-11T16:38:46.219Z,13.43
2017-10-11T16:41:15.082Z,13.48
2017-10-11T16:43:45.842Z,13.63
2017-10-11T16:49:53.072Z,13.32
2017-10-11T16:52:31.348Z,13.33
2017-10-11T16:55:03.835Z,13.59
2017-10-11T16:57:49.982Z,13.45
2017-10-11T17:00:24.312Z,13.31
2017-10-11T17:03:03.405Z,13.19
2017-10-11T17:05:35.673Z,13.58
2017-10-11T17:08:12.536Z,13.70
2017-10-11T17:10:48.008Z,13.70
2017-10-11T17:13:36.431Z,13.80
2017-10-11T17:16:10.769Z,13.86
2017-10-11T17:18:45.651Z,14.34
2017-10-11T17:21:19.253Z,14.70
2017-10-11T17:23:54.448Z,14.68
2017-10-11T17:26:27.928Z,14.77
2017-10-11T17:29:07.979Z,14.62
2017-10-11T17:31:44.223Z,14.12
2017-10-11T17:34:18.523Z,14.18
2017-10-11T17:36:50.247Z,14.27
2017-10-11T17:39:29.146Z,14.33
2017-10-11T17:42:08.734Z,14.49
2017-10-11T17:44:42.254Z,13.93
2017-10-11T17:47:22.790Z,13.58
2017-10-11T17:49:56.194Z,13.95
2017-10-11T17:52:32.182Z,13.85
2017-10-11T17:55:10.528Z,13.86
2017-10-11T17:57:42.584Z,13.62
2017-10-11T18:00:21.858Z,13.80
2017-10-11T18:02:57.828Z,13.74
2017-10-11T18:05:30.720Z,14.06
2017-10-11T18:08:08.085Z,14.01
2017-10-11T18:10:41.562Z,13.62
2017-10-11T18:13:13.670Z,14.06
2017-10-11T18:15:54.710Z,14.18
2017-10-11T18:18:26.776Z,14.19
2017-10-11T18:20:59.286Z,14.41
2017-10-11T18:23:34.692Z,14.28
2017-10-11T18:26:10.440Z,14.44
2017-10-11T18:28:44.698Z,14.36
2017-10-11T18:31:16.595Z,14.16
2017-10-11T18:33:49.368Z,14.26
2017-10-11T18:36:21.281Z,14.43
2017-10-11T18:38:53.795Z,14.13
2017-10-11T18:41:25.902Z,14.20
2017-10-11T18:44:03.287Z,14.35
2017-10-11T18:46:40.080Z,14.13
2017-10-11T18:49:15.850Z,13.99
2017-10-11T18:51:49.649Z,13.72
2017-10-11T18:54:32.287Z,13.95
2017-10-11T18:57:05.447Z,13.57
2017-10-11T18:59:42.485Z,13.85
2017-10-11T19:02:17.415Z,13.79
2017-10-11T19:04:50.913Z,13.97
2017-10-11T19:07:29.166Z,13.68
2017-10-11T19:10:04.583Z,14.25
2017-10-11T19:12:38.868Z,14.39
2017-10-11T19:15:14.368Z,14.07
2017-10-11T19:17:52.912Z,13.84
2017-10-11T19:20:26.156Z,14.00
2017-10-11T19:22:58.103Z,14.67
2017-10-11T19:25:33.419Z,14.74
2017-10-11T19:28:06.758Z,14.60
2017-10-11T19:30:40.339Z,14.19
2017-10-11T19:33:13.335Z,14.74
2017-10-11T19:35:49.956Z,14.62
2017-10-11T19:38:22.595Z,14.69
2017-10-11T19:40:56.936Z,14.76
2017-10-11T19:43:30.190Z,15.32
2017-10-11T19:48:41.924Z,15.32
2017-10-11T19:51:14.801Z,15.05
2017-10-11T19:53:47.604Z,14.98
2017-10-11T19:56:30.863Z,15.00
2017-10-11T19:59:08.453Z,15.22
2017-10-11T20:01:43.038Z,14.78
2017-10-11T20:04:15.490Z,14.94
2017-10-11T20:06:47.904Z,14.91
2017-10-11T20:09:22.756Z,14.83
2017-10-11T20:11:56.252Z,14.52
2017-10-11T20:14:39.103Z,14.85
2017-10-11T20:17:18.424Z,14.75
2017-10-11T20:19:54.761Z,14.36
2017-10-11T20:22:40.836Z,14.20
2017-10-11T20:25:14.024Z,14.48
2017-10-11T20:27:50.937Z,14.18
2017-10-11T20:30:30.835Z,14.21
2017-10-11T20:33:05.788Z,14.03
2017-10-11T20:35:40.122Z,13.69
2017-10-11T20:38:18.524Z,13.33
2017-10-11T20:40:53.004Z,13.49
2017-10-11T20:43:27.329Z,13.63
2017-10-11T20:45:59.041Z,13.92
2017-10-11T20:48:31.419Z,14.54
2017-10-11T20:51:09.741Z,13.88
2017-10-11T20:53:43.515Z,14.30
2017-10-11T20:56:16.155Z,14.00
2017-10-11T20:58:49.525Z,14.10
2017-10-11T21:01:22.645Z,14.04
2017-10-11T21:03:57.298Z,14.14
2017-10-11T21:06:30.719Z,13.94
2017-10-11T21:09:05.218Z,13.88
2017-10-11T21:11:38.341Z,14.07
2017-10-11T21:14:10.780Z,13.93
2017-10-11T21:16:44.758Z,13.74
2017-10-11T21:19:19.625Z,13.91
2017-10-11T21:21:58.461Z,14.09
2017-10-11T21:24:32.390Z,13.97
2017-10-11T21:27:09.347Z,13.84
2017-10-11T21:29:42.487Z,13.99
2017-10-11T21:32:13.527Z,14.46
2017-10-11T21:34:44.821Z,14.50
2017-10-11T21:37:16.079Z,14.74
2017-10-11T21:39:48.496Z,14.83
2017-10-11T21:42:20.545Z,14.43
2017-10-11T21:44:53.956Z,14.49
2017-10-11T21:47:28.739Z,14.56
2017-10-11T21:53:41.753Z,14.47
2017-10-11T21:56:13.140Z,14.42
2017-10-11T21:58:44.271Z,14.82
2017-10-11T22:01:20.028Z,15.30
2017-10-11T22:03:57.658Z,15.24
2017-10-11T22:06:34.537Z,15.63
2017-10-11T22:09:15.258Z,15.33
2017-10-11T22:11:49.454Z,15.55
2017-10-11T22:14:22.006Z,15.55
2017-10-11T22:16:58.304Z,15.22
2017-10-11T22:19:31.719Z,15.40
2017-10-11T22:22:14.628Z,15.29
2017-10-11T22:24:50.778Z,15.27
2017-10-11T22:31:03.351Z,14.86
2017-10-11T22:33:35.856Z,14.71
2017-10-11T22:36:08.516Z,14.86
2017-10-11T22:38:43.854Z,14.72
2017-10-11T22:41:15.687Z,14.39
2017-10-11T22:43:54.291Z,14.24
2017-10-11T22:46:30.855Z,14.05
2017-10-11T22:49:15.846Z,13.83
2017-10-11T22:51:49.141Z,13.75
2017-10-11T22:54:20.933Z,13.59
2017-10-11T22:56:55.971Z,13.73
2017-10-11T22:59:28.984Z,13.81
2017-10-11T23:02:03.974Z,13.86
2017-10-11T23:04:38.997Z,13.97
2017-10-11T23:07:10.834Z,14.07
2017-10-11T23:09:43.949Z,13.87
2017-10-11T23:12:15.299Z,14.03
2017-10-11T23:14:48.134Z,14.05
2017-10-11T23:17:20.200Z,14.18
2017-10-11T23:19:53.060Z,13.78
2017-10-11T23:22:26.029Z,13.94
2017-10-11T23:25:00.431Z,14.05
2017-10-11T23:27:37.680Z,14.00
2017-10-11T23:30:18.409Z,13.80
2017-10-11T23:32:49.497Z,13.65
2017-10-11T23:35:26.170Z,13.67
2017-10-11T23:38:05.857Z,13.67
2017-10-11T23:40:37.205Z,13.92
2017-10-11T23:43:10.699Z,13.82
2017-10-11T23:45:44.035Z,13.72
2017-10-11T23:48:17.337Z,13.93
2017-10-11T23:50:56.781Z,13.97
2017-10-11T23:53:31.469Z,14.23
2017-10-11T23:56:03.375Z,14.28
2017-10-11T23:58:37.834Z,14.02
